Terminal Aerodrome Forecast
Issued by NWS Binghamton, NY

Home | Current Version | Previous Version | Text Only | Print | Product List | Glossary On
Versions: 1 2 3 4 5 6 7 8 9 10 11 12 13 14 15 16 17
000
FTUS41 KBGM 190536
TAFBGM
TAF
KBGM 190536Z 1906/2006 05007KT P6SM BKN200
     FM191200 12007KT P6SM OVC200
     FM191900 14010G18KT P6SM OVC200
     FM200100 14015G22KT P6SM OVC120=

USA.gov is the U.S. government's official web portal to all federal, state and local government web resources and services.